createdAt,value
2023-09-10T00:01:28.016Z,12.52
2023-09-10T00:03:54.825Z,13.13
2023-09-10T00:06:21.549Z,12.55
2023-09-10T00:08:50.186Z,13.70
2023-09-10T00:11:16.958Z,12.50
2023-09-10T00:13:43.713Z,12.70
2023-09-10T00:16:10.596Z,13.50
2023-09-10T00:18:37.505Z,12.30
2023-09-10T00:21:07.317Z,11.15
2023-09-10T00:23:34.023Z,13.40
2023-09-10T00:26:00.902Z,12.57
2023-09-10T00:28:27.573Z,11.15
2023-09-10T00:30:55.053Z,17.75
2023-09-10T00:33:21.829Z,13.40
2023-09-10T00:35:48.598Z,12.57
2023-09-10T00:38:18.998Z,13.73
2023-09-10T00:40:45.817Z,13.95
2023-09-10T00:43:17.994Z,14.10
2023-09-10T00:45:44.900Z,15.50
2023-09-10T00:48:11.694Z,14.52
2023-09-10T00:50:38.635Z,14.43
2023-09-10T00:53:06.897Z,14.25
2023-09-10T00:58:06.994Z,13.05
2023-09-10T01:00:35.262Z,15.48
2023-09-10T01:05:30.556Z,13.70
2023-09-10T01:07:58.996Z,16.52
2023-09-10T01:10:34.192Z,14.10
2023-09-10T01:13:06.856Z,13.55
2023-09-10T01:15:38.075Z,15.27
2023-09-10T01:18:21.829Z,15.05
2023-09-10T01:21:11.261Z,16.90
2023-09-10T01:24:10.012Z,14.32
2023-09-10T01:26:41.105Z,16.05
2023-09-10T01:29:13.915Z,14.50
2023-09-10T01:31:43.507Z,14.57
2023-09-10T01:34:14.377Z,14.80
2023-09-10T01:36:47.821Z,15.15
2023-09-10T01:39:37.518Z,16.55
2023-09-10T01:42:06.788Z,13.05
2023-09-10T01:44:35.689Z,14.85
2023-09-10T01:47:03.450Z,14.05
2023-09-10T01:49:32.134Z,15.13
2023-09-10T01:52:02.295Z,15.73
2023-09-10T01:54:29.114Z,15.40
2023-09-10T01:56:55.783Z,16.77
2023-09-10T01:59:25.619Z,16.05
2023-09-10T02:01:52.380Z,14.52
2023-09-10T02:04:19.253Z,15.65
2023-09-10T02:06:45.962Z,18.00
2023-09-10T02:09:12.655Z,15.35
2023-09-10T02:11:39.344Z,15.93
2023-09-10T02:14:06.037Z,15.32
2023-09-10T02:16:32.803Z,16.77
2023-09-10T02:18:59.490Z,15.38
2023-09-10T02:21:26.303Z,17.42
2023-09-10T02:23:53.002Z,16.42
2023-09-10T02:26:21.011Z,17.13
2023-09-10T02:28:47.838Z,18.83
2023-09-10T02:31:14.883Z,19.63
2023-09-10T02:33:44.295Z,18.00
2023-09-10T02:36:10.966Z,15.10
2023-09-10T02:38:38.007Z,16.98
2023-09-10T02:41:04.979Z,17.77
2023-09-10T02:43:31.905Z,18.25
2023-09-10T02:45:58.611Z,17.08
2023-09-10T02:48:28.614Z,17.10
2023-09-10T02:50:55.385Z,16.25
2023-09-10T02:53:22.133Z,21.08
2023-09-10T02:55:48.965Z,16.65
2023-09-10T02:58:15.731Z,18.88
2023-09-10T03:00:42.402Z,18.05
2023-09-10T03:03:09.157Z,16.92
2023-09-10T03:05:36.072Z,16.00
2023-09-10T03:08:03.601Z,16.80
2023-09-10T03:10:30.277Z,14.77
2023-09-10T03:12:57.106Z,19.10
2023-09-10T03:15:23.777Z,19.95
2023-09-10T03:17:53.412Z,19.67
2023-09-10T03:20:20.254Z,17.88
2023-09-10T03:22:47.005Z,17.80
2023-09-10T03:25:13.802Z,16.58
2023-09-10T03:27:40.592Z,17.63
2023-09-10T03:30:07.999Z,17.25
2023-09-10T03:32:34.887Z,18.83
2023-09-10T03:35:04.162Z,18.08
2023-09-10T03:37:30.920Z,19.77
2023-09-10T03:39:57.624Z,18.15
2023-09-10T03:42:27.051Z,19.48
2023-09-10T03:44:53.783Z,18.08
2023-09-10T03:47:20.670Z,16.30
2023-09-10T03:49:47.501Z,17.25
2023-09-10T03:52:22.696Z,16.27
2023-09-10T03:54:49.431Z,17.23
2023-09-10T03:57:16.246Z,17.27
2023-09-10T03:59:42.962Z,18.95
2023-09-10T04:02:10.344Z,17.67
2023-09-10T04:04:37.285Z,21.55
2023-09-10T04:07:04.607Z,19.25
2023-09-10T04:09:32.119Z,17.25
2023-09-10T04:11:59.117Z,18.33
2023-09-10T04:14:25.851Z,15.43
2023-09-10T04:16:52.652Z,18.23
2023-09-10T04:19:19.361Z,17.30
2023-09-10T04:21:46.052Z,18.60
2023-09-10T04:24:12.746Z,17.50
2023-09-10T04:26:39.497Z,17.25
2023-09-10T04:29:06.465Z,19.25
2023-09-10T04:31:38.331Z,17.27
2023-09-10T04:34:05.023Z,17.08
2023-09-10T04:36:31.806Z,18.80
2023-09-10T04:38:58.452Z,18.67
2023-09-10T04:41:27.573Z,18.27
2023-09-10T04:43:54.480Z,18.42
2023-09-10T04:46:21.964Z,19.23
2023-09-10T04:48:48.788Z,18.77
2023-09-10T04:51:16.401Z,19.17
2023-09-10T04:53:43.718Z,19.95
2023-09-10T04:56:10.598Z,18.88
2023-09-10T04:58:38.640Z,22.10
2023-09-10T05:01:06.792Z,16.63
2023-09-10T05:03:33.586Z,18.05
2023-09-10T05:06:04.551Z,19.58
2023-09-10T05:08:31.307Z,19.88
2023-09-10T05:10:58.243Z,19.08
2023-09-10T05:13:25.069Z,19.45
2023-09-10T05:15:55.859Z,19.05
2023-09-10T05:18:23.240Z,18.58
2023-09-10T05:20:50.170Z,17.85
2023-09-10T05:23:16.970Z,19.50
2023-09-10T05:25:43.785Z,19.45
2023-09-10T05:28:10.527Z,19.67
2023-09-10T05:30:43.394Z,19.40
2023-09-10T05:33:10.287Z,17.85
2023-09-10T05:35:37.068Z,17.80
2023-09-10T05:38:06.174Z,21.27
2023-09-10T05:40:38.882Z,19.30
2023-09-10T05:43:06.272Z,20.55
2023-09-10T05:45:34.728Z,22.40
2023-09-10T05:48:01.616Z,21.75
2023-09-10T05:50:28.372Z,18.17
2023-09-10T05:52:57.464Z,18.77
2023-09-10T05:55:26.040Z,20.58
2023-09-10T05:57:56.205Z,22.73
2023-09-10T06:00:23.372Z,23.25
2023-09-10T06:02:50.863Z,20.90
2023-09-10T06:05:18.233Z,18.38
2023-09-10T06:07:45.458Z,20.83
2023-09-10T06:10:12.300Z,22.92
2023-09-10T06:12:40.077Z,22.65
2023-09-10T06:15:08.478Z,22.42
2023-09-10T06:17:35.697Z,20.52
2023-09-10T06:20:04.193Z,24.17
2023-09-10T06:22:31.545Z,21.52
2023-09-10T06:24:58.372Z,19.20
2023-09-10T06:27:25.359Z,19.20
2023-09-10T06:29:52.089Z,19.05
2023-09-10T06:32:18.859Z,19.13
2023-09-10T06:34:48.161Z,19.42
2023-09-10T06:37:15.011Z,20.30
2023-09-10T06:39:41.965Z,31.58
2023-09-10T06:42:12.406Z,26.60
2023-09-10T06:44:50.681Z,23.77
2023-09-10T06:47:17.475Z,27.55
2023-09-10T06:49:44.182Z,35.97
2023-09-10T06:52:11.321Z,47.75
2023-09-10T06:54:41.336Z,95.20
2023-09-10T06:57:20.361Z,107.43
2023-09-10T06:59:47.731Z,110.13
2023-09-10T07:02:14.477Z,111.50
2023-09-10T07:04:49.426Z,106.22
2023-09-10T07:07:17.162Z,111.25
2023-09-10T07:09:44.084Z,128.18
2023-09-10T07:12:15.327Z,105.60
2023-09-10T07:14:44.103Z,74.00
2023-09-10T07:17:10.937Z,76.28
2023-09-10T07:19:41.767Z,86.72
2023-09-10T07:22:08.648Z,87.40
2023-09-10T07:24:35.315Z,91.57
2023-09-10T07:27:02.765Z,107.80
2023-09-10T07:29:29.542Z,110.05
2023-09-10T07:31:56.295Z,106.30
2023-09-10T07:34:23.029Z,119.72
2023-09-10T07:36:50.522Z,103.15
2023-09-10T07:39:19.519Z,110.32
2023-09-10T07:41:46.274Z,94.35
2023-09-10T07:44:12.978Z,106.78
2023-09-10T07:46:39.741Z,103.15
2023-09-10T07:49:06.470Z,94.00
2023-09-10T07:51:33.188Z,92.25
2023-09-10T07:53:59.934Z,86.95
2023-09-10T07:56:26.818Z,95.15
2023-09-10T07:58:53.575Z,100.10
2023-09-10T08:01:20.400Z,102.72
2023-09-10T08:03:48.006Z,99.90
2023-09-10T08:06:16.372Z,101.72
2023-09-10T08:08:43.074Z,104.63
2023-09-10T08:11:09.863Z,92.38
2023-09-10T08:13:36.618Z,95.32
2023-09-10T08:16:03.473Z,88.72
2023-09-10T08:18:30.354Z,90.45
2023-09-10T08:20:57.044Z,89.70
2023-09-10T08:23:23.809Z,87.63
2023-09-10T08:25:53.593Z,83.95
2023-09-10T08:28:20.482Z,79.40
2023-09-10T08:30:47.354Z,76.13
2023-09-10T08:33:14.181Z,71.18
2023-09-10T08:36:00.984Z,65.18
2023-09-10T08:38:28.694Z,73.78
2023-09-10T08:41:03.973Z,69.45
2023-09-10T08:43:53.564Z,70.30
2023-09-10T08:46:23.613Z,66.85
2023-09-10T08:48:52.228Z,66.57
2023-09-10T08:51:19.610Z,71.43
2023-09-10T08:53:49.157Z,74.30
2023-09-10T08:56:16.324Z,69.78
2023-09-10T08:58:44.625Z,72.25
2023-09-10T09:01:13.136Z,74.13
2023-09-10T09:03:39.981Z,73.05
2023-09-10T09:06:07.544Z,68.88
2023-09-10T09:08:36.704Z,75.20
2023-09-10T09:11:05.453Z,64.85
2023-09-10T09:13:36.382Z,78.57
2023-09-10T09:16:06.801Z,73.97
2023-09-10T09:18:36.796Z,75.80
2023-09-10T09:21:14.008Z,74.13
2023-09-10T09:23:47.097Z,68.88
2023-09-10T09:26:15.702Z,63.08
2023-09-10T09:28:42.728Z,71.20
2023-09-10T09:31:10.918Z,55.53
2023-09-10T09:33:38.970Z,69.70
2023-09-10T09:38:36.052Z,63.67
2023-09-10T09:41:05.171Z,65.03
2023-09-10T09:43:35.802Z,62.83
2023-09-10T09:46:04.095Z,61.00
2023-09-10T09:48:31.643Z,64.22
2023-09-10T09:50:58.898Z,63.78
2023-09-10T09:53:30.242Z,64.82
2023-09-10T09:56:05.302Z,67.07
2023-09-10T09:58:32.941Z,67.32
2023-09-10T10:01:00.748Z,58.33
2023-09-10T10:03:30.244Z,58.65
2023-09-10T10:05:57.419Z,64.85
2023-09-10T10:08:30.367Z,64.60
2023-09-10T10:10:58.524Z,62.85
2023-09-10T10:13:26.920Z,58.28
2023-09-10T10:15:57.806Z,65.30
2023-09-10T10:18:30.707Z,59.20
2023-09-10T10:20:59.475Z,59.53
2023-09-10T10:23:27.250Z,57.85
2023-09-10T10:25:55.007Z,59.78
2023-09-10T10:31:30.062Z,52.03
2023-09-10T10:34:06.413Z,49.25
2023-09-10T10:36:54.910Z,50.72
2023-09-10T10:39:48.068Z,54.60
2023-09-10T10:42:19.180Z,49.97
2023-09-10T10:44:46.043Z,48.17
2023-09-10T10:47:13.870Z,49.10
2023-09-10T10:49:53.870Z,52.10
2023-09-10T10:52:31.977Z,56.20
2023-09-10T10:54:59.628Z,50.15
2023-09-10T10:57:28.416Z,50.35
2023-09-10T10:59:55.792Z,49.85
2023-09-10T11:02:24.709Z,53.53
2023-09-10T11:05:18.221Z,45.97
2023-09-10T11:07:46.354Z,56.83
2023-09-10T11:10:28.446Z,47.03
2023-09-10T11:13:14.365Z,52.90
2023-09-10T11:16:06.711Z,50.08
2023-09-10T11:18:36.574Z,45.92
2023-09-10T11:21:07.924Z,48.92
2023-09-10T11:23:36.101Z,49.67
2023-09-10T11:26:15.314Z,46.47
2023-09-10T11:28:45.082Z,44.47
2023-09-10T11:31:39.049Z,44.45
2023-09-10T11:34:18.399Z,42.92
2023-09-10T11:37:06.917Z,45.40
2023-09-10T11:39:35.040Z,36.95
2023-09-10T11:42:03.916Z,43.70
2023-09-10T11:44:30.722Z,40.80
2023-09-10T11:46:58.038Z,38.33
2023-09-10T11:49:26.083Z,44.05
2023-09-10T11:51:56.793Z,39.15
2023-09-10T11:54:24.148Z,36.38
2023-09-10T11:56:52.970Z,39.38
2023-09-10T11:59:27.038Z,38.45
2023-09-10T12:01:55.668Z,36.78
2023-09-10T12:04:32.688Z,35.63
2023-09-10T12:07:01.559Z,33.67
2023-09-10T12:09:32.652Z,34.33
2023-09-10T12:12:07.245Z,33.13
2023-09-10T12:14:34.563Z,32.75
2023-09-10T12:17:01.824Z,34.55
2023-09-10T12:19:29.324Z,31.13
2023-09-10T12:21:56.585Z,28.33
2023-09-10T12:24:23.453Z,29.58
2023-09-10T12:26:50.311Z,25.98
2023-09-10T12:29:17.932Z,28.30
2023-09-10T12:31:45.350Z,25.83
2023-09-10T12:34:15.510Z,26.40
2023-09-10T12:36:43.264Z,25.98
2023-09-10T12:39:26.295Z,26.98
2023-09-10T12:41:59.998Z,28.33
2023-09-10T12:44:26.854Z,26.38
2023-09-10T12:46:53.966Z,28.42
2023-09-10T12:49:23.258Z,29.48
2023-09-10T12:51:50.006Z,26.00
2023-09-10T12:54:16.734Z,27.35
2023-09-10T12:56:43.928Z,24.05
2023-09-10T12:59:13.606Z,23.48
2023-09-10T13:01:40.667Z,20.75
2023-09-10T13:04:10.900Z,20.73
2023-09-10T13:06:37.713Z,20.08
2023-09-10T13:09:05.491Z,23.10
2023-09-10T13:11:33.316Z,21.67
2023-09-10T13:14:02.361Z,22.70
2023-09-10T13:16:30.812Z,24.17
2023-09-10T13:18:57.831Z,23.05
2023-09-10T13:21:24.635Z,26.83
2023-09-10T13:23:51.417Z,25.70
2023-09-10T13:26:18.409Z,27.95
2023-09-10T13:28:45.147Z,25.15
2023-09-10T13:31:12.888Z,23.33
2023-09-10T13:36:07.478Z,28.67
2023-09-10T13:38:34.186Z,26.15
2023-09-10T13:41:01.031Z,23.90
2023-09-10T13:43:27.850Z,25.30
2023-09-10T13:45:54.779Z,24.90
2023-09-10T13:48:22.165Z,26.02
2023-09-10T13:50:48.868Z,23.58
2023-09-10T13:53:15.532Z,21.77
2023-09-10T13:55:42.364Z,21.70
2023-09-10T13:58:12.647Z,19.08
2023-09-10T14:00:40.056Z,21.17
2023-09-10T14:03:06.704Z,21.67
2023-09-10T14:05:33.556Z,19.85
2023-09-10T14:08:00.433Z,18.40
2023-09-10T14:10:27.317Z,18.08
2023-09-10T14:12:53.959Z,21.10
2023-09-10T14:15:21.720Z,20.83
2023-09-10T14:20:17.404Z,21.45
2023-09-10T14:22:44.202Z,21.45
2023-09-10T14:25:18.677Z,20.17
2023-09-10T14:27:45.415Z,22.42
2023-09-10T14:30:14.152Z,19.80
2023-09-10T14:32:41.779Z,22.25
2023-09-10T14:37:36.323Z,22.40
2023-09-10T14:40:05.756Z,22.02
2023-09-10T14:42:38.481Z,20.73
2023-09-10T14:45:05.842Z,23.58
2023-09-10T14:47:32.666Z,22.88
2023-09-10T14:49:59.802Z,24.77
2023-09-10T14:52:26.724Z,22.60
2023-09-10T14:54:53.945Z,25.83
2023-09-10T14:57:20.913Z,27.98
2023-09-10T14:59:47.663Z,23.38
2023-09-10T15:02:14.393Z,25.20
2023-09-10T15:04:41.121Z,21.58
2023-09-10T15:07:07.901Z,25.13
2023-09-10T15:09:34.530Z,23.92
2023-09-10T15:12:01.207Z,24.73
2023-09-10T15:14:27.969Z,26.50
2023-09-10T15:16:55.563Z,26.95
2023-09-10T15:19:24.098Z,24.23
2023-09-10T15:21:51.034Z,26.58
2023-09-10T15:24:17.820Z,27.20
2023-09-10T15:26:44.699Z,28.10
2023-09-10T15:29:11.717Z,26.05
2023-09-10T15:31:39.046Z,27.02
2023-09-10T15:34:07.375Z,26.60
2023-09-10T15:36:35.548Z,28.77
2023-09-10T15:39:03.858Z,25.98
2023-09-10T15:41:34.123Z,28.30
2023-09-10T15:44:04.742Z,27.45
2023-09-10T15:46:31.914Z,27.33
2023-09-10T15:49:00.584Z,27.85
2023-09-10T15:51:27.972Z,25.55
2023-09-10T15:53:54.695Z,26.88
2023-09-10T15:56:24.508Z,29.13
2023-09-10T15:58:51.289Z,29.35
2023-09-10T16:01:18.168Z,29.48
2023-09-10T16:03:45.409Z,32.25
2023-09-10T16:06:13.040Z,30.95
2023-09-10T16:08:40.194Z,29.90
2023-09-10T16:11:08.505Z,33.30
2023-09-10T16:13:35.989Z,33.28
2023-09-10T16:16:03.286Z,32.13
2023-09-10T16:18:29.972Z,29.90
2023-09-10T16:20:58.075Z,28.13
2023-09-10T16:23:25.121Z,29.52
2023-09-10T16:25:54.814Z,31.00
2023-09-10T16:28:21.669Z,34.33
2023-09-10T16:30:48.629Z,30.95
2023-09-10T16:33:15.393Z,32.85
2023-09-10T16:35:45.477Z,35.33
2023-09-10T16:38:14.255Z,31.85
2023-09-10T16:40:41.695Z,34.03
2023-09-10T16:43:08.593Z,36.08
2023-09-10T16:45:36.181Z,36.03
2023-09-10T16:48:02.997Z,35.88
2023-09-10T16:50:29.889Z,39.30
2023-09-10T16:52:56.745Z,40.60
2023-09-10T16:55:23.434Z,43.28
2023-09-10T16:57:50.125Z,43.47
2023-09-10T17:00:17.024Z,40.97
2023-09-10T17:02:43.838Z,43.03
2023-09-10T17:05:11.004Z,41.88
2023-09-10T17:07:39.206Z,42.53
2023-09-10T17:12:32.769Z,41.38
2023-09-10T17:14:59.440Z,40.00
2023-09-10T17:17:29.896Z,40.45
2023-09-10T17:19:56.811Z,44.72
2023-09-10T17:22:24.348Z,43.65
2023-09-10T17:24:51.151Z,42.30
2023-09-10T17:27:17.901Z,43.70
2023-09-10T17:29:44.796Z,42.10
2023-09-10T17:32:11.949Z,42.35
2023-09-10T17:34:38.671Z,48.58
2023-09-10T17:37:05.343Z,46.03
2023-09-10T17:39:32.132Z,46.47
2023-09-10T17:41:58.826Z,44.72
2023-09-10T17:44:25.609Z,46.38
2023-09-10T17:46:57.120Z,43.67
2023-09-10T17:49:24.088Z,42.13
2023-09-10T17:51:51.865Z,53.13
2023-09-10T17:54:18.767Z,50.03
2023-09-10T17:56:45.497Z,51.17
2023-09-10T17:59:12.529Z,51.40
2023-09-10T18:01:39.288Z,48.92
2023-09-10T18:04:07.769Z,50.08
2023-09-10T18:06:35.230Z,53.40
2023-09-10T18:09:02.780Z,48.63
2023-09-10T18:11:29.564Z,45.78
2023-09-10T18:13:56.644Z,45.50
2023-09-10T18:16:23.413Z,48.22
2023-09-10T18:18:50.275Z,54.58
2023-09-10T18:21:19.991Z,52.20
2023-09-10T18:23:46.803Z,51.63
2023-09-10T18:26:16.001Z,49.75
2023-09-10T18:28:42.913Z,49.85
2023-09-10T18:31:10.419Z,55.67
2023-09-10T18:33:37.095Z,53.85
2023-09-10T18:36:04.250Z,56.13
2023-09-10T18:38:40.726Z,53.22
2023-09-10T18:41:12.089Z,54.85
2023-09-10T18:43:41.942Z,53.25
2023-09-10T18:46:08.999Z,49.90
2023-09-10T18:48:36.337Z,53.28
2023-09-10T18:51:04.739Z,52.15
2023-09-10T18:53:33.020Z,53.42
2023-09-10T18:56:00.338Z,58.97
2023-09-10T18:58:27.222Z,61.08
2023-09-10T19:00:58.080Z,55.78
2023-09-10T19:03:25.881Z,57.60
2023-09-10T19:05:54.267Z,60.80
2023-09-10T19:08:21.198Z,60.20
2023-09-10T19:10:59.320Z,56.20
2023-09-10T19:13:28.865Z,57.42
2023-09-10T19:15:55.781Z,64.25
2023-09-10T19:18:22.545Z,59.95
2023-09-10T19:20:50.190Z,62.10
2023-09-10T19:23:16.990Z,71.97
2023-09-10T19:25:44.044Z,71.95
2023-09-10T19:28:10.897Z,76.65
2023-09-10T19:30:42.022Z,73.15
2023-09-10T19:33:18.898Z,67.95
2023-09-10T19:36:44.237Z,66.15
2023-09-10T19:39:25.610Z,63.33
2023-09-10T19:41:52.309Z,59.17
2023-09-10T19:44:36.024Z,65.22
2023-09-10T19:47:02.929Z,56.30
2023-09-10T19:49:29.711Z,62.20
2023-09-10T19:51:56.416Z,58.75
2023-09-10T19:54:23.145Z,59.40
2023-09-10T19:56:50.182Z,58.47
2023-09-10T19:59:16.963Z,59.38
2023-09-10T20:01:45.844Z,55.60
2023-09-10T20:04:13.426Z,56.05
2023-09-10T20:06:41.970Z,61.13
2023-09-10T20:09:08.930Z,60.33
2023-09-10T20:11:44.109Z,60.03
2023-09-10T20:14:10.977Z,59.10
2023-09-10T20:16:50.823Z,52.97
2023-09-10T20:19:17.592Z,53.38
2023-09-10T20:21:44.372Z,51.67
2023-09-10T20:24:10.976Z,55.20
2023-09-10T20:26:37.658Z,55.75
2023-09-10T20:29:04.409Z,49.58
2023-09-10T20:31:31.270Z,54.17
2023-09-10T20:33:57.886Z,50.53
2023-09-10T20:36:24.615Z,54.38
2023-09-10T20:38:54.288Z,57.28
2023-09-10T20:41:21.212Z,59.05
2023-09-10T20:43:47.975Z,60.80
2023-09-10T20:46:15.209Z,58.45
2023-09-10T20:48:42.066Z,62.50
2023-09-10T20:51:10.459Z,56.60
2023-09-10T20:53:38.579Z,56.55
2023-09-10T20:58:36.439Z,58.53
2023-09-10T21:01:03.798Z,59.80
2023-09-10T21:03:32.201Z,64.18
2023-09-10T21:05:59.751Z,60.90
2023-09-10T21:08:27.639Z,65.25
2023-09-10T21:10:54.692Z,59.53
2023-09-10T21:13:21.531Z,57.45
2023-09-10T21:15:49.664Z,57.78
2023-09-10T21:20:44.533Z,52.05
2023-09-10T21:23:11.258Z,50.13
2023-09-10T21:25:40.220Z,52.35
2023-09-10T21:28:09.468Z,52.30
2023-09-10T21:30:36.171Z,50.83
2023-09-10T21:33:03.737Z,55.03
2023-09-10T21:35:32.866Z,50.95
2023-09-10T21:37:59.526Z,51.60
2023-09-10T21:40:26.161Z,59.53
2023-09-10T21:42:52.990Z,48.42
2023-09-10T21:45:19.667Z,51.88
2023-09-10T21:47:46.838Z,50.55
2023-09-10T21:50:13.655Z,51.97
2023-09-10T21:52:41.031Z,54.20
2023-09-10T21:55:08.343Z,52.67
2023-09-10T21:57:35.041Z,49.28
2023-09-10T22:00:01.824Z,52.35
2023-09-10T22:02:28.545Z,51.33
2023-09-10T22:04:55.356Z,55.25
2023-09-10T22:07:22.154Z,45.50
2023-09-10T22:09:49.481Z,51.80
2023-09-10T22:12:16.751Z,47.90
2023-09-10T22:14:43.753Z,46.15
2023-09-10T22:17:10.578Z,48.97
2023-09-10T22:19:37.405Z,47.30
2023-09-10T22:22:06.919Z,50.67
2023-09-10T22:24:36.685Z,43.67
2023-09-10T22:27:04.345Z,46.78
2023-09-10T22:29:31.174Z,48.67
2023-09-10T22:31:58.111Z,44.80
2023-09-10T22:34:25.295Z,45.22
2023-09-10T22:36:55.885Z,49.20
2023-09-10T22:39:22.639Z,46.97
2023-09-10T22:41:49.390Z,42.60
2023-09-10T22:44:16.140Z,47.33
2023-09-10T22:46:42.922Z,46.40
2023-09-10T22:49:10.290Z,50.33
2023-09-10T22:51:38.784Z,43.80
2023-09-10T22:54:05.936Z,46.60
2023-09-10T22:56:33.003Z,40.03
2023-09-10T22:58:59.886Z,41.70
2023-09-10T23:01:27.763Z,42.35
2023-09-10T23:03:54.976Z,44.58
2023-09-10T23:06:22.006Z,45.30
2023-09-10T23:08:48.715Z,44.85
2023-09-10T23:11:15.659Z,45.45
2023-09-10T23:13:43.689Z,47.38
2023-09-10T23:16:10.527Z,47.70
2023-09-10T23:18:37.252Z,43.63
2023-09-10T23:21:03.981Z,47.05
2023-09-10T23:23:30.726Z,49.20
2023-09-10T23:25:57.417Z,50.35
2023-09-10T23:28:29.249Z,45.72
2023-09-10T23:30:56.118Z,45.47
2023-09-10T23:33:22.890Z,49.40
2023-09-10T23:35:49.662Z,51.15
2023-09-10T23:38:16.345Z,47.38
2023-09-10T23:40:55.116Z,45.83
2023-09-10T23:43:22.217Z,44.33
2023-09-10T23:45:49.046Z,43.13
2023-09-10T23:48:16.125Z,42.35
2023-09-10T23:50:43.709Z,44.30
2023-09-10T23:53:10.452Z,47.92
2023-09-10T23:55:37.360Z,46.03
2023-09-10T23:58:07.310Z,43.60
